Aérodrome :
LOGIN :

S'inscrire | Disclaimer

   EN    FR    IT 

 










Légende :    VFR   VFR Marginal   IFR   IFR Intensif   IFR Très Intensif
Visi : 
Plafond : 
>= 8 km
>= 3000ft
5 à 8 km
1000 à 3000 ft
1500m à 5 km
500 à 1000 ft
800 à 1500m
200 à 500 ft
< 800m
< 200 ft
Symboles :   Orages  Brouillard  Fortes neiges  Fortes précipitations  Vent > 20 kt
SIGMETs :   Divers  Orages  Givrage  Turbulence  Onde Orograph.  Cendres Volcan.







- Altitude de l'aérodrome : 32 ft
- Code IATA : LKZ


EGUL - RAF Lakenheath

DERNIER METAR :
  • 240756Z AUTO 29004KT 9999 CLR 07/04 A3058 RMK AO2 SLP359 T00710044 $

METARs EXPIRÉS :
  • 240656Z AUTO 24006KT 9999 CLR 04/02 A3056 RMK AO2 SLP352 T00350022 $
  • 240556Z AUTO 00000KT 9999 CLR 02/01 A3054 RMK AO2 SLP345 T00200005 10039 20020 52013 $
  • 240456Z AUTO 24003KT 9999 CLR 03/02 A3053 RMK AO2 SLP342 T00330020 $

TAF TAF EGUL
Valide du 24 à 04h jusqu'au 25 à 10h UTC


240410Z 2404/2510 30009KT 9999 FEW030 QNH3050INS
BECMG 2418/2419 34006KT 9999 SCT035 QNH3061INS
BECMG 2503/2504 28006KT 9999 FEW040 QNH3064INS TX13/2415Z TN03/2404Z
Pas de NOTAMs connus pour ce terrain.



MET'MAP, la Météo Aéronautique d'un coup d'oeil ! - Copyright ORBIFLY Décembre 2007 - Disclaimer

ORBIFLY MET'MAP TEAM :

Programmation & Développement : Alexandra Zaïnal
Conception & Développement : Baudouin d'Aumeries
Co-Programmation & Développement : Marc-Olivier Méhu
Soutien technique & logistique : Manuel Goepfert

Contact : metmap@orbifly.com




SOURCES & CREDITS :

   NOAA